Airfield :
LOGIN :

Register | Disclaimer

   EN    FR    IT 

 










Legend :    VFR   Marginal VFR   IFR   Intensive IFR   Very Intensive IFR
Visi :
Ceiling :
>= 8 km
>= 3000ft
5 to 8 km
1000 to 3000 ft
1500m to 5 km
500 to 1000 ft
800 to 1500m
200 to 500 ft
< 800m
< 200 ft
Symbols :   Thunderstorms  Fog  Heavy snow  Heavy precipitations  Wind > 20 kt
SIGMETs :     Misc.  Thunderstorms  Icing  Turbulence  Mountain Waves  Volcanic Ashes







- Airport Elevation : 295 ft
- IATA code : BWE


EDVE - Braunschweig

CURRENT METAR :
  • 180720Z 09003KT 0250 R26/0400 FG VV/// 10/10 Q1016

EXPIRED METARs :
  • 180650Z 00000KT 0100 R26/M0200N FG VV/// 09/09 Q1016
  • 180620Z 09003KT 1000 0300E R08/1300VP2000D FG FEW001 BKN003 BKN007 08/08 Q1016
  • 180550Z 10003KT 0550 R08/1000VP2000D FG SCT003 08/08 Q1016
  • 180520Z 10003KT 1000 0550E R08/P2000N FG BKN001 OVC009 09/09 Q1016
  • 180450Z 00000KT 2000 BR FEW006 OVC010 09/09 Q1016

TAF AMD TAF EDVE
Valid from the 18 at 06:00 until the 18 at 15:00 UTC


180650Z 1806/1815 VRB03KT 0100 FG VV001
BECMG 1807/1809 2000 BR OVC003
BECMG 1809/1811 12006KT 8000 SCT025
No reported NOTAMs for that airfield.



MET'MAP, your aeronautical weather chart ! - Copyright ORBIFLY December 2007 - Disclaimer

ORBIFLY MET'MAP TEAM :

Programming & Development : Alexandra Zaïnal
Concept & Development : Baudouin d'Aumeries
Co-Development & Prog : Marc-Olivier Méhu
Technical & hardware support : Manuel Goepfert

Contact : metmap@orbifly.com




SOURCES & CREDITS :

   NOAA